createdAt,value
2022-12-11T08:22:41.864Z,25.35
2022-12-11T08:25:08.898Z,25.60
2022-12-11T08:27:35.716Z,29.10
2022-12-11T08:30:02.416Z,28.77
2022-12-11T08:32:29.244Z,27.77
2022-12-11T08:34:55.871Z,31.02
2022-12-11T08:37:22.566Z,26.40
2022-12-11T08:39:49.243Z,27.70
2022-12-11T08:42:15.913Z,29.08
2022-12-11T08:44:42.688Z,30.85
2022-12-11T08:47:09.890Z,29.33
2022-12-11T08:49:36.783Z,29.40
2022-12-11T08:52:05.008Z,29.25
2022-12-11T08:54:32.159Z,26.77
2022-12-11T08:56:58.896Z,27.20
2022-12-11T08:59:26.079Z,28.52
2022-12-11T09:01:54.146Z,29.35
2022-12-11T09:04:20.981Z,29.23
2022-12-11T09:06:47.669Z,29.67
2022-12-11T09:09:14.888Z,27.40
2022-12-11T09:11:41.852Z,26.00
2022-12-11T09:14:08.647Z,26.92
2022-12-11T09:16:39.621Z,25.98
2022-12-11T09:19:08.272Z,27.00
2022-12-11T09:21:35.041Z,26.60
2022-12-11T09:24:01.933Z,26.88
2022-12-11T09:26:30.111Z,29.83
2022-12-11T09:28:57.369Z,25.95
2022-12-11T09:31:30.310Z,27.83
2022-12-11T09:33:59.307Z,31.30
2022-12-11T09:36:26.836Z,29.52
2022-12-11T09:38:54.060Z,28.25
2022-12-11T09:41:20.697Z,30.02
2022-12-11T09:44:02.398Z,30.05
2022-12-11T09:46:33.774Z,30.65
2022-12-11T09:49:02.510Z,27.38
2022-12-11T09:51:47.750Z,29.23
2022-12-11T09:54:15.055Z,38.25
2022-12-11T09:57:18.090Z,30.55
2022-12-11T10:00:05.709Z,28.45
2022-12-11T10:03:06.874Z,32.67
2022-12-11T10:05:39.877Z,32.95
2022-12-11T10:08:22.417Z,27.10
2022-12-11T10:11:04.632Z,26.20
2022-12-11T10:13:50.091Z,31.58
2022-12-11T10:16:33.476Z,26.20
2022-12-11T10:19:00.508Z,26.10
2022-12-11T10:21:31.784Z,26.40
2022-12-11T10:24:03.777Z,26.45
2022-12-11T10:26:30.654Z,27.42
2022-12-11T10:29:01.101Z,23.73
2022-12-11T10:31:39.102Z,27.17
2022-12-11T10:34:13.758Z,30.58
2022-12-11T10:36:42.034Z,26.67
2022-12-11T10:39:17.731Z,27.17
2022-12-11T10:41:47.289Z,27.90
2022-12-11T10:44:21.655Z,27.27
2022-12-11T10:47:09.764Z,26.98
2022-12-11T10:49:38.593Z,25.13
2022-12-11T10:52:19.611Z,26.38
2022-12-11T10:54:52.895Z,26.50
2022-12-11T10:57:31.536Z,25.40
2022-12-11T10:59:59.787Z,25.70
2022-12-11T11:02:34.052Z,26.38
2022-12-11T11:05:13.003Z,26.55
2022-12-11T11:07:39.946Z,25.02
2022-12-11T11:10:10.891Z,25.67
2022-12-11T11:12:48.936Z,21.50
2022-12-11T11:15:25.238Z,22.20
2022-12-11T11:17:56.121Z,23.35
2022-12-11T11:20:31.220Z,23.95
2022-12-11T11:23:11.261Z,24.65
2022-12-11T11:25:37.965Z,24.08
2022-12-11T11:28:07.386Z,24.58
2022-12-11T11:30:40.263Z,24.55
2022-12-11T11:33:15.848Z,23.20
2022-12-11T11:35:59.009Z,21.20
2022-12-11T11:38:31.641Z,24.42
2022-12-11T11:41:15.426Z,25.17
2022-12-11T11:43:49.609Z,23.90
2022-12-11T11:46:22.317Z,23.25
2022-12-11T11:48:56.596Z,26.77
2022-12-11T11:51:34.872Z,23.25
2022-12-11T11:54:08.011Z,22.63
2022-12-11T11:56:37.511Z,25.40
2022-12-11T11:59:20.232Z,24.80
2022-12-11T12:01:47.749Z,25.20
2022-12-11T12:04:14.813Z,23.33
2022-12-11T12:06:51.011Z,25.17
2022-12-11T12:09:36.788Z,26.35
2022-12-11T12:12:25.528Z,23.58
2022-12-11T12:15:20.009Z,24.05
2022-12-11T12:18:15.117Z,27.02
2022-12-11T12:21:08.751Z,26.48
2022-12-11T12:24:00.744Z,23.38
2022-12-11T12:26:31.201Z,23.60
2022-12-11T12:29:38.020Z,26.20
2022-12-11T12:32:29.462Z,25.75
2022-12-11T12:35:37.471Z,26.15
2022-12-11T12:38:52.451Z,27.27
2022-12-11T12:41:48.113Z,27.02
2022-12-11T12:44:50.571Z,25.90
2022-12-11T12:47:19.631Z,25.75
2022-12-11T12:49:48.911Z,25.88
2022-12-11T12:52:42.547Z,25.58
2022-12-11T12:55:25.277Z,24.48
2022-12-11T12:57:54.956Z,25.98
2022-12-11T13:00:35.111Z,26.58
2022-12-11T13:07:08.898Z,26.77
2022-12-11T13:09:52.610Z,23.60
2022-12-11T13:12:45.156Z,25.83
2022-12-11T13:15:24.134Z,25.25
2022-12-11T13:17:51.360Z,23.65
2022-12-11T13:20:24.425Z,27.00
2022-12-11T13:23:16.953Z,24.05
2022-12-11T13:25:53.270Z,23.88
2022-12-11T13:28:38.004Z,25.15
2022-12-11T13:31:23.170Z,23.52
2022-12-11T13:33:57.033Z,23.40
2022-12-11T13:36:29.968Z,23.10
2022-12-11T13:39:15.334Z,24.23
2022-12-11T13:41:47.301Z,25.23
2022-12-11T13:44:22.668Z,24.60
2022-12-11T13:46:51.066Z,26.65
2022-12-11T13:49:29.957Z,25.67
2022-12-11T13:51:58.953Z,26.08
2022-12-11T13:54:27.181Z,26.38
2022-12-11T13:57:21.531Z,25.92
2022-12-11T13:59:53.036Z,24.15
2022-12-11T14:02:25.244Z,26.10
2022-12-11T14:05:12.974Z,26.48
2022-12-11T14:07:49.536Z,26.23
2022-12-11T14:10:18.701Z,26.95
2022-12-11T14:12:53.775Z,24.98
2022-12-11T14:15:21.040Z,27.33
2022-12-11T14:17:51.677Z,25.85
2022-12-11T14:20:25.180Z,26.17
2022-12-11T14:22:52.015Z,27.48
2022-12-11T14:25:24.825Z,26.02
2022-12-11T14:27:56.705Z,28.00
2022-12-11T14:30:25.113Z,27.77
2022-12-11T14:32:55.977Z,26.65
2022-12-11T14:35:37.083Z,28.08
2022-12-11T14:38:20.863Z,24.08
2022-12-11T14:40:51.663Z,25.13
2022-12-11T14:43:27.375Z,29.20
2022-12-11T14:45:59.112Z,27.13
2022-12-11T14:48:32.212Z,32.97
2022-12-11T14:51:03.337Z,29.67
2022-12-11T14:53:35.434Z,30.45
2022-12-11T14:56:06.132Z,25.70
2022-12-11T14:58:41.060Z,26.10
2022-12-11T15:01:22.984Z,30.83
2022-12-11T15:03:49.818Z,25.48
2022-12-11T15:06:30.756Z,28.45
2022-12-11T15:08:57.527Z,31.17
2022-12-11T15:11:30.201Z,35.95
2022-12-11T15:13:59.615Z,34.70
2022-12-11T15:16:31.191Z,30.38
2022-12-11T15:18:58.816Z,30.40
2022-12-11T15:21:30.891Z,26.38
2022-12-11T15:23:59.944Z,25.02
2022-12-11T15:26:47.327Z,27.23
2022-12-11T15:29:40.617Z,27.88
2022-12-11T15:32:14.023Z,27.80
2022-12-11T15:34:59.185Z,27.98
2022-12-11T15:37:36.504Z,28.33
2022-12-11T15:40:05.255Z,27.70
2022-12-11T15:42:39.655Z,29.17
2022-12-11T15:45:14.861Z,25.80
2022-12-11T15:47:42.808Z,27.60
2022-12-11T15:50:21.777Z,30.05
2022-12-11T15:52:49.737Z,27.05
2022-12-11T15:55:17.299Z,29.17
2022-12-11T15:57:51.453Z,28.02
2022-12-11T16:00:19.677Z,27.42
2022-12-11T16:02:47.385Z,29.13
2022-12-11T16:05:15.272Z,28.98
2022-12-11T16:07:42.071Z,27.38
2022-12-11T16:10:16.000Z,29.25
2022-12-11T16:12:43.361Z,28.20
2022-12-11T16:15:13.725Z,30.98
2022-12-11T16:17:44.358Z,28.15
2022-12-11T16:20:13.348Z,26.65
2022-12-11T16:22:40.677Z,27.08
2022-12-11T16:25:07.683Z,30.75
2022-12-11T16:27:34.418Z,28.58
2022-12-11T16:30:01.266Z,27.05
2022-12-11T16:32:28.005Z,28.98
2022-12-11T16:34:54.668Z,28.83
2022-12-11T16:37:21.335Z,29.77
2022-12-11T16:39:48.216Z,29.33
2022-12-11T16:42:14.912Z,29.77
2022-12-11T16:44:44.328Z,31.15
2022-12-11T16:47:11.435Z,35.45
2022-12-11T16:49:38.231Z,34.05
2022-12-11T16:52:05.021Z,33.80
2022-12-11T16:54:31.856Z,38.65
2022-12-11T16:56:58.539Z,36.95
2022-12-11T16:59:25.258Z,38.90
2022-12-11T17:01:52.267Z,53.80
2022-12-11T17:04:19.055Z,52.95
2022-12-11T17:06:46.351Z,60.47
2022-12-11T17:09:13.001Z,87.55
2022-12-11T17:11:39.771Z,67.05
2022-12-11T17:14:06.617Z,68.88
2022-12-11T17:16:34.042Z,65.50
2022-12-11T17:19:00.823Z,54.95
2022-12-11T17:21:27.517Z,49.17
2022-12-11T17:23:54.237Z,54.85
2022-12-11T17:26:20.996Z,50.92
2022-12-11T17:28:47.781Z,47.60
2022-12-11T17:31:17.922Z,45.58
